Time;durP1;ratioP1;P1;durP2;ratioP2;P2;SDS_P1;SDS_P2;PMS_P1;PMS_P2;Temp;Humidity;BMP_temperature;BMP_pressure;BME280_temperature;BME280_humidity;BME280_pressure;Samples;Min_cycle;Max_cycle;Signal;HPM_P1;HPM_P2
2022/05/25 00:01:36;;;;;;;1.75;0.88;;;23.50;41.00;;;;;;8296259;28;20496;-41
2022/05/25 00:05:38;;;;;;;0.73;0.70;;;23.50;41.00;;;;;;8296047;28;20033;-41
2022/05/25 00:09:39;;;;;;;0.95;0.60;;;23.50;41.00;;;;;;8295557;28;20042;-41
2022/05/25 00:13:40;;;;;;;0.70;0.68;;;23.40;40.90;;;;;;8295433;28;20029;-41
2022/05/25 00:17:40;;;;;;;1.52;0.75;;;23.40;41.00;;;;;;8295625;28;20034;-41
2022/05/25 00:21:41;;;;;;;1.10;1.00;;;23.50;41.00;;;;;;8295017;28;20060;-41
2022/05/25 00:25:41;;;;;;;1.13;0.93;;;23.40;41.00;;;;;;8295489;28;20475;-41
2022/05/25 00:29:42;;;;;;;1.13;0.67;;;23.40;41.00;;;;;;8295526;28;20117;-41
2022/05/25 00:33:42;;;;;;;0.60;0.60;;;23.40;41.00;;;;;;8294776;28;20030;-41
2022/05/25 00:37:43;;;;;;;0.60;0.60;;;23.40;41.00;;;;;;8294745;28;20654;-41
2022/05/25 00:41:44;;;;;;;1.45;0.70;;;23.40;41.00;;;;;;8294936;28;20530;-41
2022/05/25 00:45:49;;;;;;;0.70;0.70;;;23.40;41.00;;;;;;8294120;28;20048;-41
2022/05/25 00:49:50;;;;;;;1.90;0.75;;;23.40;41.00;;;;;;8294869;28;20381;-41
2022/05/25 00:54:01;;;;;;;0.90;0.82;;;23.40;41.00;;;;;;8293565;28;20034;-41
2022/05/25 00:58:01;;;;;;;0.80;0.80;;;23.40;41.10;;;;;;8294089;28;20231;-41
2022/05/25 01:02:02;;;;;;;0.87;0.83;;;23.40;41.10;;;;;;8294390;28;20537;-41
2022/05/25 01:06:05;;;;;;;0.85;0.85;;;23.30;41.00;;;;;;8293417;28;20781;-41
2022/05/25 01:10:18;;;;;;;0.73;0.70;;;23.40;41.10;;;;;;8294534;28;20534;-41
2022/05/25 01:14:34;;;;;;;1.23;0.95;;;23.30;41.10;;;;;;8293810;28;20180;-41
2022/05/25 01:18:47;;;;;;;1.00;0.80;;;23.30;41.10;;;;;;8292916;28;20030;-41
2022/05/25 01:23:19;;;;;;;1.05;0.80;;;23.30;41.10;;;;;;8293470;28;20042;-41
2022/05/25 01:27:36;;;;;;;0.85;0.80;;;23.30;41.10;;;;;;8292853;28;20395;-41
2022/05/25 01:31:46;;;;;;;1.02;0.90;;;23.30;41.10;;;;;;8293141;28;20041;-41
2022/05/25 01:35:46;;;;;;;1.38;1.08;;;23.30;41.10;;;;;;8292903;28;20113;-41
2022/05/25 01:39:55;;;;;;;0.70;0.70;;;23.30;41.10;;;;;;8292435;28;20533;-41
2022/05/25 01:44:13;;;;;;;0.75;0.70;;;23.30;41.10;;;;;;8292835;28;20385;-41
2022/05/25 01:48:16;;;;;;;1.10;0.80;;;23.30;41.10;;;;;;8292394;28;20153;-41
2022/05/25 01:52:22;;;;;;;1.90;0.95;;;23.30;41.10;;;;;;8292931;28;20030;-41
2022/05/25 01:56:26;;;;;;;0.95;0.70;;;23.30;41.10;;;;;;8292898;28;20553;-41
2022/05/25 02:00:39;;;;;;;0.85;0.82;;;23.30;41.10;;;;;;8291957;28;20026;-41
2022/05/25 02:04:41;;;;;;;1.20;0.80;;;23.20;41.10;;;;;;8291862;28;20037;-41
2022/05/25 02:09:06;;;;;;;0.68;0.68;;;23.30;41.20;;;;;;8292140;28;20068;-41
2022/05/25 02:13:31;;;;;;;0.65;0.63;;;23.20;41.10;;;;;;8291930;28;20050;-41
2022/05/25 02:18:00;;;;;;;1.42;0.77;;;23.20;41.10;;;;;;8291911;28;20406;-41
2022/05/25 02:22:21;;;;;;;1.67;0.77;;;23.20;41.20;;;;;;8291893;28;20409;-41
2022/05/25 02:26:28;;;;;;;1.45;0.93;;;23.20;41.20;;;;;;8291351;28;20184;-41
2022/05/25 02:30:33;;;;;;;0.80;0.80;;;23.20;41.20;;;;;;8291193;28;20521;-41
2022/05/25 02:34:37;;;;;;;0.60;0.60;;;23.20;41.20;;;;;;8291541;28;20042;-41
2022/05/25 02:38:39;;;;;;;0.73;0.73;;;23.20;41.20;;;;;;8291142;28;20030;-41
2022/05/25 02:42:41;;;;;;;0.85;0.70;;;23.20;41.20;;;;;;8290804;28;20092;-41
2022/05/25 02:46:42;;;;;;;0.80;0.60;;;23.20;41.20;;;;;;8290775;28;20084;-41
2022/05/25 02:50:43;;;;;;;1.10;1.00;;;23.10;41.20;;;;;;8291420;28;20129;-41
2022/05/25 02:54:43;;;;;;;2.13;0.60;;;23.10;41.20;;;;;;8290655;28;20326;-41
2022/05/25 02:58:44;;;;;;;1.37;1.10;;;23.20;41.20;;;;;;8290873;28;20042;-41
2022/05/25 03:02:44;;;;;;;1.85;1.45;;;23.10;41.20;;;;;;8290985;28;20061;-41
2022/05/25 03:06:45;;;;;;;0.93;0.80;;;23.10;41.20;;;;;;8290742;28;20165;-41
2022/05/25 03:10:47;;;;;;;1.83;0.95;;;23.10;41.20;;;;;;8290885;28;20285;-41
2022/05/25 03:14:47;;;;;;;0.90;0.90;;;23.10;41.20;;;;;;8290894;28;20034;-41
2022/05/25 03:18:50;;;;;;;1.95;1.00;;;23.10;41.20;;;;;;8295358;28;20440;-41
2022/05/25 03:22:51;;;;;;;1.30;0.55;;;23.10;41.20;;;;;;8297394;28;20061;-41
2022/05/25 03:26:51;;;;;;;1.33;0.97;;;23.10;41.20;;;;;;8297031;28;20710;-41
2022/05/25 03:30:52;;;;;;;1.20;0.97;;;23.10;41.20;;;;;;8296436;28;20034;-41
2022/05/25 03:34:52;;;;;;;1.00;0.90;;;23.10;41.20;;;;;;8296741;28;20033;-41
2022/05/25 03:38:53;;;;;;;1.47;1.07;;;23.10;41.30;;;;;;8296750;28;20391;-41
2022/05/25 03:42:54;;;;;;;0.93;0.83;;;23.10;41.20;;;;;;8295811;28;20026;-41
2022/05/25 03:46:54;;;;;;;0.80;0.80;;;23.10;41.20;;;;;;8296037;28;20277;-41
2022/05/25 03:50:55;;;;;;;1.03;0.80;;;23.10;41.30;;;;;;8296258;28;20052;-41
2022/05/25 03:54:55;;;;;;;1.02;0.80;;;23.00;41.20;;;;;;8296126;28;20085;-41
2022/05/25 03:58:56;;;;;;;0.80;0.80;;;23.00;41.20;;;;;;8296437;28;20418;-41
2022/05/25 04:02:59;;;;;;;2.70;0.77;;;23.10;41.20;;;;;;8296288;28;20292;-41
2022/05/25 04:07:00;;;;;;;1.45;1.10;;;23.00;41.20;;;;;;8295348;28;20066;-41
2022/05/25 04:11:01;;;;;;;2.60;1.00;;;23.00;41.20;;;;;;8295790;28;20569;-41
2022/05/25 04:15:01;;;;;;;1.00;0.80;;;23.00;41.20;;;;;;8295120;28;20039;-41
2022/05/25 04:19:02;;;;;;;0.80;0.80;;;23.00;41.20;;;;;;8295295;28;20034;-41
2022/05/25 04:23:02;;;;;;;1.33;0.90;;;23.00;41.20;;;;;;8295324;28;20034;-41
2022/05/25 04:27:03;;;;;;;1.47;0.73;;;23.00;41.20;;;;;;8294637;28;20293;-41
2022/05/25 04:31:04;;;;;;;1.33;1.00;;;23.00;41.20;;;;;;8294292;28;20308;-41
2022/05/25 04:35:06;;;;;;;0.98;0.80;;;23.00;41.20;;;;;;8295051;28;20029;-41
2022/05/25 04:39:07;;;;;;;1.25;0.60;;;23.00;41.20;;;;;;8294522;28;20041;-41
2022/05/25 04:43:14;;;;;;;0.60;0.60;;;23.00;41.20;;;;;;8294996;28;20430;-41
2022/05/25 04:47:14;;;;;;;0.77;0.70;;;23.00;41.10;;;;;;8294257;28;20060;-41
2022/05/25 04:51:16;;;;;;;1.43;0.80;;;23.00;41.20;;;;;;8294320;28;20038;-41
2022/05/25 04:59:36;;;;;;;0.93;0.90;;;22.90;41.10;;;;;;8298170;28;19919;-41
2022/05/25 05:03:37;;;;;;;1.08;0.90;;;22.90;41.10;;;;;;8293532;28;20030;-41
2022/05/25 05:07:39;;;;;;;1.10;0.80;;;23.00;41.20;;;;;;8293851;28;20041;-41
2022/05/25 05:11:43;;;;;;;0.90;0.70;;;22.90;41.10;;;;;;8294039;28;20057;-41
2022/05/25 05:15:49;;;;;;;1.08;0.98;;;22.90;41.10;;;;;;8293275;28;20138;-41
2022/05/25 05:19:50;;;;;;;1.05;1.02;;;22.90;41.10;;;;;;8293961;28;20042;-41
2022/05/25 05:23:50;;;;;;;1.90;0.90;;;22.90;41.10;;;;;;8293302;28;20042;-41
2022/05/25 05:27:51;;;;;;;1.20;1.10;;;22.90;41.10;;;;;;8292872;28;20450;-41
2022/05/25 05:31:52;;;;;;;0.80;0.80;;;22.90;41.10;;;;;;8293356;28;20133;-41
2022/05/25 05:36:18;;;;;;;0.70;0.70;;;22.90;41.10;;;;;;8292678;28;20041;-41
2022/05/25 05:40:19;;;;;;;0.70;0.70;;;22.90;41.10;;;;;;8284174;28;20045;-41
2022/05/25 05:44:25;;;;;;;1.00;0.90;;;22.90;41.10;;;;;;8292453;28;20088;-41
2022/05/25 05:48:29;;;;;;;2.20;0.88;;;22.90;41.10;;;;;;8291868;28;20100;-40
2022/05/25 05:52:30;;;;;;;0.68;0.68;;;22.90;41.10;;;;;;8292351;28;20447;-41
2022/05/25 05:56:32;;;;;;;0.85;0.85;;;22.90;41.10;;;;;;8292384;28;20041;-41
2022/05/25 06:00:33;;;;;;;0.70;0.70;;;22.90;41.10;;;;;;8291853;28;20040;-41
2022/05/25 06:04:34;;;;;;;1.23;0.93;;;22.90;41.10;;;;;;8292740;28;20034;-41
2022/05/25 06:08:34;;;;;;;0.97;0.83;;;22.90;41.10;;;;;;8292052;28;20499;-41
2022/05/25 06:12:35;;;;;;;0.88;0.77;;;22.90;41.00;;;;;;8291403;28;20030;-41
2022/05/25 06:20:55;;;;;;;1.10;0.80;;;22.90;41.00;;;;;;8291816;28;20553;-41
2022/05/25 06:24:56;;;;;;;0.77;0.77;;;22.90;41.00;;;;;;8290823;28;20034;-41
2022/05/25 06:29:00;;;;;;;1.13;0.70;;;22.90;41.00;;;;;;8291439;28;20106;-41
2022/05/25 06:33:04;;;;;;;0.75;0.75;;;22.90;41.00;;;;;;8290787;28;20038;-41
2022/05/25 06:37:07;;;;;;;1.13;0.90;;;22.90;41.00;;;;;;8291674;28;20049;-41
2022/05/25 06:41:07;;;;;;;1.05;0.95;;;23.00;41.00;;;;;;8291074;28;20117;-41
2022/05/25 06:45:09;;;;;;;2.00;0.67;;;22.90;40.90;;;;;;8290630;28;20455;-41
2022/05/25 06:49:10;;;;;;;0.60;0.60;;;23.00;41.50;;;;;;8290825;28;20285;-41
2022/05/25 06:53:10;;;;;;;0.70;0.50;;;23.00;41.00;;;;;;8290568;28;20029;-41
2022/05/25 06:57:11;;;;;;;0.67;0.67;;;23.00;40.90;;;;;;8290827;28;20046;-41
2022/05/25 07:01:12;;;;;;;1.00;0.90;;;23.00;40.90;;;;;;8290824;28;20499;-41
2022/05/25 07:05:12;;;;;;;0.70;0.70;;;23.00;40.80;;;;;;8291429;28;20129;-41
2022/05/25 07:09:13;;;;;;;1.10;0.88;;;23.00;40.80;;;;;;8290128;28;20057;-41
2022/05/25 07:13:15;;;;;;;0.77;0.77;;;23.00;40.80;;;;;;8291328;28;20093;-41
2022/05/25 07:17:15;;;;;;;2.22;0.70;;;23.00;40.80;;;;;;8290913;28;20133;-41
2022/05/25 07:21:22;;;;;;;0.93;0.80;;;23.00;40.80;;;;;;8290308;28;20382;-41
2022/05/25 07:25:23;;;;;;;1.13;0.88;;;23.00;40.80;;;;;;8290698;28;20096;-41
2022/05/25 07:29:23;;;;;;;1.50;0.90;;;23.00;40.90;;;;;;8290568;28;20443;-41
2022/05/25 07:33:24;;;;;;;0.97;0.87;;;23.00;40.80;;;;;;8289806;28;20088;-41
2022/05/25 07:37:32;;;;;;;1.35;0.93;;;23.00;40.80;;;;;;8290828;28;20053;-41
2022/05/25 07:41:35;;;;;;;0.60;0.60;;;23.00;40.80;;;;;;8290459;28;20041;-41
2022/05/25 07:45:36;;;;;;;1.20;0.80;;;23.00;40.80;;;;;;8289492;28;20201;-41
2022/05/25 07:49:37;;;;;;;2.00;0.90;;;23.00;40.80;;;;;;8290282;28;20455;-41
2022/05/25 07:53:56;;;;;;;1.03;0.80;;;23.10;40.90;;;;;;8290509;28;20038;-41
2022/05/25 07:57:56;;;;;;;0.60;0.60;;;23.10;40.80;;;;;;8290087;28;20038;-41
2022/05/25 08:06:23;;;;;;;1.58;0.80;;;23.10;40.90;;;;;;8294833;28;20045;-41
2022/05/25 08:10:26;;;;;;;0.90;0.82;;;23.10;40.90;;;;;;8295556;28;20527;-41
2022/05/25 08:14:29;;;;;;;1.10;0.80;;;23.00;40.80;;;;;;8295681;28;20046;-41
2022/05/25 08:18:30;;;;;;;0.82;0.77;;;23.10;40.80;;;;;;8294634;28;20064;-41
2022/05/25 08:22:30;;;;;;;0.75;0.73;;;23.10;40.80;;;;;;8295171;28;20053;-41
2022/05/25 08:26:31;;;;;;;0.93;0.80;;;23.20;40.80;;;;;;8295157;28;20046;-41
2022/05/25 08:30:34;;;;;;;0.90;0.80;;;23.20;40.80;;;;;;8294378;28;20100;-41
2022/05/25 08:34:35;;;;;;;1.50;1.05;;;23.20;40.80;;;;;;8294643;28;20073;-41
2022/05/25 08:38:35;;;;;;;0.80;0.73;;;23.20;40.80;;;;;;8294600;28;20038;-41
2022/05/25 08:43:07;;;;;;;0.80;0.80;;;23.20;40.70;;;;;;8294178;28;20092;-41
2022/05/25 08:47:10;;;;;;;0.80;0.80;;;23.30;40.70;;;;;;8247470;28;20049;-41
2022/05/25 08:51:14;;;;;;;0.80;0.80;;;23.30;40.80;;;;;;8282805;28;20104;-40
2022/05/25 08:55:29;;;;;;;1.88;0.80;;;23.30;40.70;;;;;;8294582;28;20041;-40
2022/05/25 08:59:46;;;;;;;1.20;0.90;;;23.30;40.70;;;;;;8294255;28;20084;-40
2022/05/25 09:04:18;;;;;;;0.80;0.80;;;23.30;40.70;;;;;;8293615;28;20045;-40
2022/05/25 09:08:43;;;;;;;0.90;0.80;;;23.30;40.70;;;;;;8293698;28;20129;-40
2022/05/25 09:13:01;;;;;;;1.10;0.77;;;23.30;40.70;;;;;;8293357;28;20419;-40
2022/05/25 09:17:09;;;;;;;0.75;0.70;;;23.30;40.70;;;;;;8293258;28;20054;-40
2022/05/25 09:21:11;;;;;;;1.00;0.70;;;23.30;40.70;;;;;;8292656;28;20084;-41
2022/05/25 09:25:14;;;;;;;1.40;0.90;;;23.30;40.70;;;;;;8293075;28;20034;-40
2022/05/25 09:29:15;;;;;;;0.90;0.90;;;23.40;40.70;;;;;;8293117;28;20490;-40
2022/05/25 09:33:31;;;;;;;1.20;1.10;;;23.30;40.60;;;;;;8292614;28;20371;-40
2022/05/25 09:37:38;;;;;;;1.05;0.80;;;23.40;40.60;;;;;;8292775;28;20062;-40
2022/05/25 09:41:43;;;;;;;1.50;0.70;;;23.30;40.60;;;;;;8292892;28;20494;-39
2022/05/25 09:45:56;;;;;;;0.98;0.88;;;23.40;40.60;;;;;;8292111;28;20065;-39
2022/05/25 09:49:58;;;;;;;2.03;0.80;;;23.30;40.60;;;;;;8292575;28;20058;-39
2022/05/25 09:54:10;;;;;;;1.10;0.88;;;23.40;40.60;;;;;;8292169;28;20062;-40
2022/05/25 09:58:31;;;;;;;;;;;23.30;40.60;;;;;;8292708;28;20037;-40
2022/05/25 10:02:41;;;;;;;0.80;0.80;;;23.30;40.60;;;;;;8292278;28;20028;-40
2022/05/25 10:06:51;;;;;;;1.40;1.30;;;23.30;40.60;;;;;;8291604;28;20037;-40
2022/05/25 10:10:59;;;;;;;0.77;0.77;;;23.40;40.60;;;;;;8291757;28;20467;-40
2022/05/25 10:15:04;;;;;;;1.33;0.90;;;23.40;40.60;;;;;;8291915;28;20368;-40
2022/05/25 10:19:11;;;;;;;1.45;0.70;;;23.40;40.60;;;;;;8291877;28;20038;-40
2022/05/25 10:23:24;;;;;;;1.10;1.00;;;23.40;40.50;;;;;;8291680;28;20084;-40
2022/05/25 10:27:35;;;;;;;0.70;0.70;;;23.40;40.50;;;;;;8290313;28;20038;-40
2022/05/25 10:40:26;;;;;;;;;;;23.60;40.50;;;;;;8291881;28;20084;-40
2022/05/25 10:44:35;;;;;;;0.80;0.80;;;23.60;40.40;;;;;;8291455;28;20430;-40
2022/05/25 10:48:57;;;;;;;1.42;1.23;;;23.60;40.40;;;;;;8290835;28;20530;-40
2022/05/25 10:53:08;;;;;;;0.80;0.80;;;23.70;40.30;;;;;;8291208;28;20041;-40
2022/05/25 10:57:23;;;;;;;1.10;0.98;;;23.70;40.30;;;;;;8290399;28;20061;-40
2022/05/25 11:01:34;;;;;;;1.27;0.93;;;23.70;40.30;;;;;;8291018;28;20413;-39
2022/05/25 11:05:56;;;;;;;1.00;1.00;;;23.70;40.30;;;;;;8291248;28;20065;-40
2022/05/25 11:10:31;;;;;;;0.77;0.70;;;23.70;40.20;;;;;;8290285;28;20354;-40
2022/05/25 11:14:42;;;;;;;1.08;0.98;;;23.70;40.20;;;;;;8291132;28;20079;-40
2022/05/25 11:18:50;;;;;;;0.77;0.77;;;23.60;40.30;;;;;;8290652;28;20428;-40
2022/05/25 11:23:27;;;;;;;1.00;0.90;;;23.70;40.30;;;;;;8290883;28;20038;-40
2022/05/25 11:27:49;;;;;;;1.20;0.90;;;23.70;40.20;;;;;;8289971;28;20038;-40
2022/05/25 11:32:06;;;;;;;0.85;0.77;;;23.70;40.20;;;;;;8290345;28;20046;-40
2022/05/25 11:36:37;;;;;;;1.15;0.73;;;23.80;40.20;;;;;;8289914;28;20072;-41
2022/05/25 11:41:12;;;;;;;1.30;0.90;;;23.80;40.10;;;;;;8296381;28;20034;-41
2022/05/25 11:45:44;;;;;;;1.05;0.90;;;23.80;40.10;;;;;;8295816;28;20394;-40
2022/05/25 11:50:11;;;;;;;1.27;0.98;;;23.90;40.10;;;;;;8295944;28;20115;-40
2022/05/25 11:54:27;;;;;;;1.23;0.80;;;23.90;40.00;;;;;;8268532;28;20038;-40
2022/05/25 11:59:14;;;;;;;1.10;1.10;;;23.90;40.00;;;;;;8296140;28;20092;-40
2022/05/25 12:03:52;;;;;;;1.02;1.00;;;24.00;39.90;;;;;;8194269;28;20119;-40
2022/05/25 12:08:23;;;;;;;2.53;1.42;;;24.00;39.90;;;;;;8260285;28;20513;-40
2022/05/25 12:12:34;;;;;;;1.20;0.82;;;24.00;39.90;;;;;;8295264;28;20041;-40
2022/05/25 12:16:40;;;;;;;2.42;1.20;;;24.00;39.80;;;;;;8295356;28;20081;-40
2022/05/25 12:20:56;;;;;;;1.25;1.05;;;24.00;39.70;;;;;;8295109;28;20083;-40
2022/05/25 12:25:03;;;;;;;1.63;1.02;;;24.00;39.80;;;;;;8295227;28;20091;-40
2022/05/25 12:29:13;;;;;;;1.23;1.13;;;24.00;39.80;;;;;;8294917;28;20046;-40
2022/05/25 12:33:23;;;;;;;1.20;1.10;;;24.00;39.90;;;;;;8294502;28;20053;-40
2022/05/25 12:37:56;;;;;;;1.33;1.23;;;24.00;39.80;;;;;;8294443;28;20134;-40
2022/05/25 12:42:22;;;;;;;1.05;1.02;;;24.00;39.80;;;;;;8261386;28;20042;-40
2022/05/25 12:51:36;;;;;;;1.58;1.15;;;24.00;39.80;;;;;;8293116;28;20070;-41
2022/05/25 12:55:37;;;;;;;1.35;1.00;;;24.10;39.90;;;;;;8294284;28;20133;-40
2022/05/25 12:59:40;;;;;;;1.23;1.13;;;24.10;39.80;;;;;;8294253;28;20046;-40
2022/05/25 13:03:46;;;;;;;1.13;1.00;;;24.10;39.80;;;;;;8293309;28;20038;-40
2022/05/25 13:07:47;;;;;;;1.35;1.25;;;24.10;39.70;;;;;;8293800;28;20045;-40
2022/05/25 13:11:53;;;;;;;1.77;1.00;;;24.20;39.80;;;;;;8293597;28;20042;-40
2022/05/25 13:15:53;;;;;;;1.92;1.40;;;24.20;39.70;;;;;;8292909;28;20068;-40
2022/05/25 13:19:54;;;;;;;1.15;1.08;;;24.20;39.70;;;;;;8293968;28;20041;-40
2022/05/25 13:23:55;;;;;;;0.80;0.80;;;24.20;39.70;;;;;;8293075;28;20062;-41
2022/05/25 13:28:09;;;;;;;1.10;1.00;;;24.20;39.70;;;;;;8292609;28;20049;-41
2022/05/25 13:32:29;;;;;;;1.17;1.08;;;24.20;39.60;;;;;;8292955;28;20033;-40
2022/05/25 13:36:30;;;;;;;1.40;1.25;;;24.30;39.70;;;;;;8292087;28;20034;-40
2022/05/25 13:40:38;;;;;;;1.42;1.30;;;24.30;39.70;;;;;;8292876;28;20480;-41
2022/05/25 13:44:53;;;;;;;1.75;1.30;;;24.30;39.60;;;;;;8292990;28;20030;-40
2022/05/25 13:48:54;;;;;;;1.40;1.30;;;24.30;39.70;;;;;;8291771;28;20097;-40
2022/05/25 13:52:54;;;;;;;1.23;1.13;;;24.30;39.60;;;;;;8292496;28;20084;-40
2022/05/25 13:56:55;;;;;;;1.42;1.10;;;24.30;39.60;;;;;;8292419;28;20064;-41
2022/05/25 14:00:55;;;;;;;1.25;1.10;;;24.30;39.50;;;;;;8291533;28;20038;-41
2022/05/25 14:05:07;;;;;;;1.20;1.10;;;24.30;39.60;;;;;;8292342;28;20399;-41
2022/05/25 14:13:40;;;;;;;1.48;1.17;;;24.40;39.60;;;;;;8291688;28;20037;-40
2022/05/25 14:17:41;;;;;;;1.27;1.05;;;24.40;39.40;;;;;;8291633;28;20033;-40
2022/05/25 14:21:45;;;;;;;1.65;1.10;;;24.40;39.40;;;;;;8290790;28;20033;-39
2022/05/25 14:25:45;;;;;;;1.75;1.30;;;24.40;39.40;;;;;;8291138;28;20053;-40
2022/05/25 14:29:47;;;;;;;1.10;1.00;;;24.40;39.30;;;;;;8291227;28;20050;-40
2022/05/25 14:34:06;;;;;;;1.40;1.20;;;24.40;39.30;;;;;;8290888;28;20041;-40
2022/05/25 14:38:08;;;;;;;1.10;1.00;;;24.40;39.80;;;;;;8290980;28;20046;-40
2022/05/25 14:42:17;;;;;;;1.00;1.00;;;24.50;39.40;;;;;;8290415;28;20049;-40
2022/05/25 14:46:31;;;;;;;1.48;0.98;;;24.40;39.20;;;;;;8291369;28;20030;-40
2022/05/25 14:50:44;;;;;;;1.35;1.25;;;24.50;39.10;;;;;;8291102;28;20561;-41
2022/05/25 14:54:47;;;;;;;1.08;0.98;;;24.50;39.20;;;;;;8290372;28;20088;-41
2022/05/25 14:58:52;;;;;;;;;;;24.50;39.20;;;;;;8291248;28;20140;-40
2022/05/25 15:03:01;;;;;;;1.77;1.30;;;24.50;39.10;;;;;;8291000;28;19918;-41
2022/05/25 15:07:03;;;;;;;2.13;1.40;;;24.50;39.00;;;;;;8290654;28;20077;-40
2022/05/25 15:11:28;;;;;;;1.42;1.23;;;24.50;39.00;;;;;;8290916;28;20080;-40
2022/05/25 15:19:54;;;;;;;1.83;1.05;;;24.50;38.90;;;;;;8297578;28;20041;-41
2022/05/25 15:24:04;;;;;;;1.10;1.00;;;24.50;38.90;;;;;;8297091;28;20070;-41
2022/05/25 15:28:10;;;;;;;2.08;1.27;;;24.50;38.80;;;;;;8296608;28;20060;-40
2022/05/25 15:32:10;;;;;;;2.30;1.20;;;24.50;38.80;;;;;;8296707;28;20034;-40
2022/05/25 15:36:20;;;;;;;1.63;1.08;;;24.50;38.80;;;;;;8296428;28;20041;-40
2022/05/25 15:40:20;;;;;;;1.48;1.17;;;24.50;38.80;;;;;;8296882;28;20034;-40
2022/05/25 15:44:21;;;;;;;1.67;1.17;;;24.50;38.90;;;;;;8296373;28;20045;-40
2022/05/25 15:48:24;;;;;;;1.33;1.17;;;24.50;38.70;;;;;;8296139;28;20491;-39
2022/05/25 15:52:25;;;;;;;1.30;1.20;;;24.50;38.80;;;;;;8296094;28;20106;-40
2022/05/25 15:56:26;;;;;;;1.20;1.00;;;24.50;38.90;;;;;;8296460;28;20037;-41
2022/05/25 16:00:27;;;;;;;1.13;1.00;;;24.50;38.80;;;;;;8295516;28;20828;-40
2022/05/25 16:04:31;;;;;;;1.83;1.20;;;24.50;38.80;;;;;;8296035;28;20030;-40
2022/05/25 16:12:54;;;;;;;1.77;1.30;;;24.50;38.80;;;;;;8307763;28;20478;-40
2022/05/25 16:16:54;;;;;;;1.33;1.10;;;24.50;38.70;;;;;;8307336;28;20056;-40
2022/05/25 16:20:55;;;;;;;1.17;0.90;;;24.50;38.80;;;;;;8306827;28;20419;-40
2022/05/25 16:24:55;;;;;;;2.22;1.10;;;24.50;38.90;;;;;;8292204;28;20487;-40
2022/05/25 16:28:56;;;;;;;1.50;1.10;;;24.50;38.80;;;;;;8286153;28;20048;-40
2022/05/25 16:32:57;;;;;;;1.67;1.10;;;24.50;38.90;;;;;;8310494;28;20022;-39
2022/05/25 16:36:57;;;;;;;1.38;1.27;;;24.50;38.90;;;;;;8294184;28;20120;-39
2022/05/25 16:40:59;;;;;;;1.35;1.00;;;24.50;38.90;;;;;;8306701;28;20037;-40
2022/05/25 16:45:03;;;;;;;1.25;1.13;;;24.40;38.80;;;;;;8314932;28;20029;-40
2022/05/25 16:49:03;;;;;;;1.30;1.20;;;24.40;38.80;;;;;;8316578;28;20478;-40
2022/05/25 16:53:04;;;;;;;1.35;1.10;;;24.50;38.70;;;;;;8320773;28;20041;-40
2022/05/25 16:57:05;;;;;;;1.08;1.00;;;24.50;38.80;;;;;;8318785;28;20106;-40
2022/05/25 17:01:12;;;;;;;1.20;1.00;;;24.40;38.60;;;;;;8294020;28;20044;-40
2022/05/25 17:05:13;;;;;;;2.33;1.10;;;24.40;38.70;;;;;;8299255;28;20041;-40
2022/05/25 17:09:14;;;;;;;1.33;0.82;;;24.40;38.70;;;;;;8302856;28;20554;-41
2022/05/25 17:13:14;;;;;;;0.80;0.80;;;24.40;38.70;;;;;;8316354;28;20125;-40
2022/05/25 17:17:15;;;;;;;1.05;0.95;;;24.40;38.70;;;;;;8315029;28;20202;-40
2022/05/25 17:21:16;;;;;;;1.17;1.08;;;24.40;38.70;;;;;;8299495;28;20117;-40
2022/05/25 17:25:17;;;;;;;1.30;0.90;;;24.40;38.60;;;;;;8320934;28;20037;-40
2022/05/25 17:29:18;;;;;;;1.00;0.90;;;24.40;38.70;;;;;;8297140;28;20078;-40
2022/05/25 17:33:22;;;;;;;1.23;1.10;;;24.40;38.70;;;;;;8301777;28;20033;-40
2022/05/25 17:41:48;;;;;;;0.88;0.88;;;24.40;38.80;;;;;;8293287;28;20192;-40
2022/05/25 17:45:54;;;;;;;1.45;0.90;;;24.40;38.90;;;;;;8293322;28;20125;-40
2022/05/25 17:49:54;;;;;;;0.90;0.90;;;24.30;38.70;;;;;;8291925;28;20999;-40
2022/05/25 17:53:55;;;;;;;1.00;1.00;;;24.30;38.80;;;;;;8307711;28;20030;-40
2022/05/25 17:57:56;;;;;;;1.02;0.95;;;24.30;38.80;;;;;;8313407;28;20057;-40
2022/05/25 18:01:58;;;;;;;1.20;1.00;;;24.30;38.90;;;;;;8303185;28;20455;-39
2022/05/25 18:05:59;;;;;;;1.05;0.90;;;24.30;38.90;;;;;;8294006;28;20030;-39
2022/05/25 18:10:02;;;;;;;1.02;0.90;;;24.30;38.80;;;;;;8297147;28;20050;-39
2022/05/25 18:14:06;;;;;;;2.03;0.95;;;24.30;38.80;;;;;;8307496;28;20030;-39
2022/05/25 18:18:13;;;;;;;1.10;1.00;;;24.30;38.90;;;;;;8295262;28;20053;-39
2022/05/25 18:22:14;;;;;;;1.42;1.20;;;24.30;38.80;;;;;;8304942;28;20124;-39
2022/05/25 18:26:15;;;;;;;0.98;0.82;;;24.30;38.80;;;;;;8291031;28;20034;-39
2022/05/25 18:30:16;;;;;;;1.30;1.08;;;24.30;38.90;;;;;;8297910;28;20426;-39
2022/05/25 18:34:17;;;;;;;1.05;0.93;;;24.30;39.40;;;;;;8291753;28;20061;-39
2022/05/25 18:38:17;;;;;;;1.23;0.93;;;24.30;38.90;;;;;;8308639;28;20042;-39
2022/05/25 18:42:18;;;;;;;1.08;1.00;;;24.30;39.40;;;;;;8290598;28;20261;-39
2022/05/25 18:46:19;;;;;;;1.27;0.95;;;24.30;38.80;;;;;;8289873;28;20037;-39
2022/05/25 18:50:24;;;;;;;2.40;0.90;;;24.20;38.90;;;;;;8297985;28;20534;-39
2022/05/25 18:54:25;;;;;;;1.48;1.00;;;24.20;38.90;;;;;;8298036;28;20045;-40
2022/05/25 18:58:26;;;;;;;1.20;0.95;;;24.20;38.90;;;;;;8308194;28;20042;-40
2022/05/25 19:02:27;;;;;;;0.90;0.88;;;24.20;38.90;;;;;;8292807;28;20548;-40
2022/05/25 19:06:28;;;;;;;1.10;1.00;;;24.20;38.90;;;;;;8301638;28;20041;-40
2022/05/25 19:10:29;;;;;;;0.85;0.85;;;24.20;38.90;;;;;;8298060;28;20053;-41
2022/05/25 19:14:30;;;;;;;1.45;0.90;;;24.10;38.90;;;;;;8290266;28;20070;-40
2022/05/25 19:18:31;;;;;;;1.00;0.90;;;24.20;38.90;;;;;;8272419;28;20042;-40
2022/05/25 19:22:37;;;;;;;2.15;0.80;;;24.10;38.90;;;;;;8290379;28;20281;-40
2022/05/25 19:26:38;;;;;;;0.82;0.80;;;24.10;38.90;;;;;;8290750;28;20518;-40
2022/05/25 19:30:38;;;;;;;0.75;0.75;;;24.10;39.00;;;;;;8289996;28;20113;-40
2022/05/25 19:34:39;;;;;;;1.23;0.90;;;24.10;39.00;;;;;;8290709;28;20044;-40
2022/05/25 19:38:40;;;;;;;0.80;0.80;;;24.10;39.00;;;;;;8290212;28;20038;-40
2022/05/25 19:42:47;;;;;;;1.20;1.00;;;24.10;39.00;;;;;;8290286;28;20049;-40
2022/05/25 19:46:48;;;;;;;1.83;1.25;;;24.10;39.00;;;;;;8290856;28;20041;-40
2022/05/25 19:50:48;;;;;;;1.35;1.10;;;24.10;39.00;;;;;;8290255;28;20052;-40
2022/05/25 19:54:49;;;;;;;0.93;0.93;;;24.10;39.00;;;;;;8290019;28;20602;-40
2022/05/25 19:58:52;;;;;;;2.10;0.88;;;24.10;39.00;;;;;;8291643;28;20164;-39
2022/05/25 20:02:54;;;;;;;1.10;0.90;;;24.10;39.00;;;;;;8296306;28;20202;-40
2022/05/25 20:06:55;;;;;;;1.92;1.02;;;24.00;39.00;;;;;;8295442;28;20117;-40
2022/05/25 20:10:55;;;;;;;1.20;1.08;;;24.00;39.00;;;;;;8295811;28;20046;-40
2022/05/25 20:14:56;;;;;;;1.05;0.95;;;24.00;39.00;;;;;;8295845;28;20111;-40
2022/05/25 20:18:57;;;;;;;1.83;1.00;;;24.00;39.00;;;;;;8294910;28;20030;-40
2022/05/25 20:22:57;;;;;;;1.23;1.13;;;24.00;39.00;;;;;;8295430;28;20044;-39
2022/05/25 20:26:58;;;;;;;1.08;0.90;;;24.00;39.00;;;;;;8295375;28;20030;-40
2022/05/25 20:30:59;;;;;;;1.20;0.82;;;24.00;39.00;;;;;;8294228;28;20042;-40
2022/05/25 20:34:59;;;;;;;1.30;0.90;;;24.00;39.00;;;;;;8295323;28;20160;-40
2022/05/25 20:39:00;;;;;;;1.10;0.90;;;23.90;39.00;;;;;;8294982;28;20276;-40
2022/05/25 20:43:00;;;;;;;1.20;0.90;;;23.90;39.00;;;;;;8295012;28;20479;-39
2022/05/25 20:47:01;;;;;;;0.80;0.80;;;23.90;39.00;;;;;;8294620;28;20049;-40
2022/05/25 20:51:06;;;;;;;0.98;0.90;;;23.90;39.10;;;;;;8294005;28;20046;-40
2022/05/25 20:55:15;;;;;;;1.25;1.00;;;23.90;39.10;;;;;;8294254;28;20040;-40
2022/05/25 20:59:16;;;;;;;2.17;1.00;;;23.90;39.10;;;;;;8294239;28;20375;-40
2022/05/25 21:03:18;;;;;;;;;;;23.90;39.10;;;;;;8294310;28;20045;-40
2022/05/25 21:07:18;;;;;;;4.22;1.10;;;23.90;39.10;;;;;;8294017;28;19921;-40
2022/05/25 21:11:19;;;;;;;1.10;0.98;;;23.90;39.10;;;;;;8293106;28;20053;-40
2022/05/25 21:15:20;;;;;;;0.82;0.82;;;23.80;39.10;;;;;;8293635;28;20042;-40
2022/05/25 21:19:21;;;;;;;1.90;1.13;;;23.90;39.10;;;;;;8293632;28;20478;-40
2022/05/25 21:23:21;;;;;;;2.20;0.80;;;23.80;39.10;;;;;;8293617;28;20062;-40
2022/05/25 21:27:22;;;;;;;1.05;1.00;;;23.80;39.10;;;;;;8293386;28;20037;-40
2022/05/25 21:35:43;;;;;;;1.67;1.08;;;23.80;39.10;;;;;;8293434;28;20120;-40
2022/05/25 21:39:43;;;;;;;3.17;1.63;;;23.80;39.10;;;;;;8292989;28;20091;-40
2022/05/25 21:43:44;;;;;;;3.83;1.55;;;23.80;39.10;;;;;;8293479;28;20038;-40
2022/05/25 21:52:04;;;;;;;2.00;1.30;;;23.80;39.10;;;;;;8292312;28;20111;-40
2022/05/25 21:56:05;;;;;;;3.22;1.60;;;23.80;39.10;;;;;;8292724;28;20034;-40
2022/05/25 22:00:28;;;;;;;3.60;1.75;;;23.80;39.10;;;;;;8292080;28;20057;-40
2022/05/25 22:04:28;;;;;;;2.55;1.38;;;23.70;39.10;;;;;;8281476;28;20557;-40
2022/05/25 22:08:29;;;;;;;1.92;1.60;;;23.70;39.10;;;;;;8292555;28;20081;-40
2022/05/25 22:12:29;;;;;;;3.35;1.40;;;23.70;39.10;;;;;;8291587;28;20133;-40